createdAt,value
2017-05-07T00:04:36.895Z,33.15
2017-05-07T00:24:37.403Z,41.05
2017-05-07T00:44:37.871Z,41.02
2017-05-07T01:04:38.273Z,45.42
2017-05-07T01:24:38.796Z,55.32
2017-05-07T01:44:39.141Z,33.38
2017-05-07T02:04:39.676Z,44.57
2017-05-07T02:24:40.131Z,37.09
2017-05-07T02:44:40.685Z,36.44
2017-05-07T03:04:41.117Z,97.79
2017-05-07T03:23:58.191Z,31.87
2017-05-07T03:43:57.666Z,35.64
2017-05-07T04:03:58.157Z,94.72
2017-05-07T04:23:58.777Z,66.94
2017-05-07T04:43:59.342Z,99.84
2017-05-07T05:03:59.851Z,85.31
2017-05-07T05:24:00.354Z,98.32
2017-05-07T05:44:00.873Z,99.30
2017-05-07T06:04:01.453Z,100.00
2017-05-07T06:24:01.950Z,100.00
2017-05-07T06:44:02.496Z,100.00
2017-05-07T07:04:03.048Z,100.00
2017-05-07T07:24:03.556Z,100.00
2017-05-07T07:44:04.102Z,100.00
2017-05-07T08:04:04.572Z,100.00
2017-05-07T08:24:05.051Z,100.00
2017-05-07T08:44:05.532Z,100.00
2017-05-07T09:04:06.028Z,100.00
2017-05-07T09:24:06.581Z,100.00
2017-05-07T09:44:07.033Z,100.00
2017-05-07T10:04:07.563Z,99.76
2017-05-07T10:24:08.047Z,100.00
2017-05-07T10:44:08.615Z,100.00
2017-05-07T11:04:09.051Z,100.00
2017-05-07T11:24:09.596Z,100.00
2017-05-07T11:44:10.170Z,100.00
2017-05-07T12:04:10.654Z,100.00
2017-05-07T12:24:11.215Z,100.00
2017-05-07T12:44:11.653Z,100.00
2017-05-07T13:04:12.154Z,100.00
2017-05-07T13:24:12.735Z,100.00
2017-05-07T13:44:13.196Z,100.00
2017-05-07T14:04:13.646Z,100.00
2017-05-07T14:24:14.210Z,99.98
2017-05-07T14:44:14.663Z,100.00
2017-05-07T15:04:15.214Z,99.99
2017-05-07T15:24:15.775Z,98.46
2017-05-07T15:44:16.300Z,100.00
2017-05-07T16:04:16.810Z,100.00
2017-05-07T16:24:17.366Z,99.61
2017-05-07T16:44:17.920Z,99.91
2017-05-07T17:04:18.473Z,99.99
2017-05-07T17:24:18.865Z,99.99
2017-05-07T17:44:19.343Z,99.97
2017-05-07T18:04:19.813Z,100.00
2017-05-07T18:24:20.343Z,100.00
2017-05-07T18:44:20.778Z,100.00
2017-05-07T19:04:21.353Z,100.00
2017-05-07T19:24:22.210Z,100.00
2017-05-07T19:45:06.804Z,43.76
2017-05-07T20:05:07.387Z,100.00
2017-05-07T20:25:07.928Z,98.00
2017-05-07T20:45:08.466Z,83.80
2017-05-07T21:05:08.918Z,82.15
2017-05-07T21:25:09.293Z,87.51
2017-05-07T21:45:09.827Z,83.71
2017-05-07T22:05:10.234Z,76.34
2017-05-07T22:25:10.707Z,96.94
2017-05-07T22:45:11.242Z,99.97
2017-05-07T23:05:11.700Z,100.00
2017-05-07T23:25:12.183Z,100.00
2017-05-07T23:45:12.707Z,99.88
